createdAt,value
2019-05-23T04:42:40.285Z,24.63
2019-05-23T04:45:10.201Z,21.73
2019-05-23T04:47:40.712Z,20.70
2019-05-23T04:50:13.480Z,21.93
2019-05-23T04:52:42.918Z,22.73
2019-05-23T04:55:15.441Z,21.40
2019-05-23T04:57:48.015Z,20.20
2019-05-23T05:00:18.836Z,19.30
2019-05-23T05:02:48.933Z,19.10
2019-05-23T05:05:19.323Z,20.27
2019-05-23T05:07:48.804Z,19.07
2019-05-23T05:10:23.583Z,21.20
2019-05-23T05:12:55.564Z,21.10
2019-05-23T05:15:26.035Z,21.93
2019-05-23T05:17:56.019Z,22.77
2019-05-23T05:20:26.405Z,20.27
2019-05-23T05:22:56.065Z,21.33
2019-05-23T05:25:28.084Z,21.97
2019-05-23T05:27:58.386Z,22.07
2019-05-23T05:30:31.473Z,21.77
2019-05-23T05:33:01.223Z,22.60
2019-05-23T05:35:32.591Z,21.67
2019-05-23T05:38:04.902Z,21.17
2019-05-23T05:40:35.271Z,19.53
2019-05-23T05:43:05.573Z,19.17
2019-05-23T05:45:34.842Z,20.50
2019-05-23T05:48:05.033Z,19.83
2019-05-23T05:50:34.918Z,19.83
2019-05-23T05:53:04.834Z,17.23
2019-05-23T05:55:34.035Z,17.13
2019-05-23T05:58:04.366Z,17.93
2019-05-23T06:00:39.719Z,16.70
2019-05-23T06:03:09.820Z,17.03
2019-05-23T06:05:58.670Z,16.57
2019-05-23T06:08:30.589Z,16.87
2019-05-23T06:11:00.300Z,16.77
2019-05-23T06:13:30.232Z,16.90
2019-05-23T06:15:59.493Z,16.30
2019-05-23T06:18:29.941Z,15.73
2019-05-23T06:21:01.565Z,16.23
2019-05-23T06:23:31.170Z,15.73
2019-05-23T06:26:00.428Z,15.70
2019-05-23T06:28:31.605Z,15.17
2019-05-23T06:31:04.019Z,12.57
2019-05-23T06:33:34.819Z,10.60
2019-05-23T06:36:05.971Z,13.47
2019-05-23T06:38:36.169Z,13.50
2019-05-23T06:41:05.774Z,12.53
2019-05-23T06:43:39.091Z,12.20
2019-05-23T06:46:09.058Z,13.23
2019-05-23T06:48:38.490Z,12.90
2019-05-23T06:51:07.708Z,8.23
2019-05-23T06:53:36.956Z,8.60
2019-05-23T06:56:08.647Z,7.50
2019-05-23T06:58:38.485Z,7.90
2019-05-23T07:01:10.609Z,7.87
2019-05-23T07:03:43.210Z,7.60
2019-05-23T07:06:14.909Z,8.20
2019-05-23T07:08:45.552Z,6.63
2019-05-23T07:11:20.481Z,6.13
2019-05-23T07:13:50.647Z,8.70
2019-05-23T07:16:19.949Z,9.00
2019-05-23T07:18:49.160Z,7.40
2019-05-23T07:21:18.482Z,6.27
2019-05-23T07:23:48.168Z,6.33
2019-05-23T07:26:17.720Z,5.87
2019-05-23T07:28:47.411Z,4.55
2019-05-23T07:31:18.580Z,5.67
2019-05-23T07:34:01.053Z,6.15
2019-05-23T07:36:19.328Z,5.53
2019-05-23T07:38:48.564Z,4.60
2019-05-23T07:41:18.219Z,5.65
2019-05-23T07:43:48.064Z,5.95
2019-05-23T07:46:17.747Z,5.65
2019-05-23T07:48:46.932Z,5.80
2019-05-23T07:51:16.437Z,5.00
2019-05-23T07:54:12.251Z,5.28
2019-05-23T07:56:42.936Z,5.35
2019-05-23T07:59:12.489Z,5.20
2019-05-23T08:01:45.101Z,5.67
2019-05-23T08:04:22.675Z,6.28
2019-05-23T08:06:48.921Z,6.20
2019-05-23T08:09:17.910Z,6.17
2019-05-23T08:11:49.035Z,6.08
2019-05-23T08:14:19.000Z,6.00
2019-05-23T08:16:49.287Z,6.58
2019-05-23T08:19:22.513Z,6.47
2019-05-23T08:21:51.775Z,6.08
2019-05-23T08:24:23.102Z,6.17
2019-05-23T08:26:58.323Z,5.80
2019-05-23T08:29:28.657Z,4.97
2019-05-23T08:31:58.442Z,5.53
2019-05-23T08:34:40.893Z,5.33
2019-05-23T08:37:00.165Z,5.45
2019-05-23T08:39:30.758Z,4.83
2019-05-23T08:42:03.798Z,4.12
2019-05-23T08:44:36.295Z,3.98
2019-05-23T08:47:08.198Z,4.00
2019-05-23T08:49:38.471Z,4.80
2019-05-23T08:52:10.237Z,4.83
2019-05-23T08:54:39.824Z,4.33
2019-05-23T08:57:09.369Z,4.33
2019-05-23T08:59:39.635Z,4.55
2019-05-23T09:02:11.261Z,4.70
2019-05-23T09:05:01.329Z,4.03
2019-05-23T09:07:12.519Z,4.40
2019-05-23T09:09:44.513Z,4.47
2019-05-23T09:12:15.778Z,3.77
2019-05-23T09:14:46.148Z,3.80
2019-05-23T09:17:15.539Z,4.28
2019-05-23T09:19:44.896Z,4.90
2019-05-23T09:22:14.165Z,4.40
2019-05-23T09:24:43.910Z,4.45
2019-05-23T09:27:15.394Z,5.20
2019-05-23T09:29:45.421Z,5.40
2019-05-23T09:32:14.685Z,4.90
2019-05-23T09:34:43.984Z,5.17
2019-05-23T09:37:13.880Z,5.20
2019-05-23T09:39:43.721Z,4.97
2019-05-23T09:42:13.021Z,4.60
2019-05-23T09:44:42.246Z,4.40
2019-05-23T09:47:13.291Z,3.97
2019-05-23T09:49:53.816Z,3.90
2019-05-23T09:52:17.982Z,4.07
2019-05-23T09:54:47.331Z,4.50
2019-05-23T09:57:17.165Z,4.20
2019-05-23T09:59:46.410Z,4.07
2019-05-23T10:02:17.054Z,3.63
2019-05-23T10:04:46.297Z,3.93
2019-05-23T10:07:16.497Z,4.83
2019-05-23T10:09:46.103Z,4.43
2019-05-23T10:12:27.550Z,4.43
2019-05-23T10:14:56.595Z,4.40
2019-05-23T10:17:26.921Z,3.90
2019-05-23T10:19:56.581Z,3.67
2019-05-23T10:22:25.836Z,4.10
2019-05-23T10:24:55.155Z,4.17
2019-05-23T10:27:26.274Z,3.77
2019-05-23T10:29:55.451Z,4.23
2019-05-23T10:32:25.309Z,4.40
2019-05-23T10:34:54.972Z,3.77
2019-05-23T10:37:25.011Z,4.20
2019-05-23T10:39:55.802Z,3.90
2019-05-23T10:42:31.345Z,4.10
2019-05-23T10:45:00.564Z,4.60
2019-05-23T10:47:30.200Z,4.57
2019-05-23T10:50:00.156Z,4.23
2019-05-23T10:52:35.682Z,4.53
2019-05-23T10:55:06.545Z,4.70
2019-05-23T10:57:40.188Z,4.27
2019-05-23T11:00:11.038Z,4.00
2019-05-23T11:02:41.060Z,4.50
2019-05-23T11:05:13.918Z,4.00
2019-05-23T11:07:42.685Z,4.03
2019-05-23T11:10:13.475Z,4.10
2019-05-23T11:12:45.316Z,4.00
2019-05-23T11:15:17.337Z,4.03
2019-05-23T11:17:48.550Z,4.10
2019-05-23T11:20:18.740Z,4.80
2019-05-23T11:22:48.282Z,3.93
2019-05-23T11:25:19.551Z,4.03
2019-05-23T11:27:48.894Z,4.57
2019-05-23T11:30:26.505Z,4.30
2019-05-23T11:33:01.115Z,3.80
2019-05-23T11:35:31.104Z,4.00
2019-05-23T11:38:00.360Z,4.00
2019-05-23T11:40:33.489Z,4.30
2019-05-23T11:43:00.851Z,4.50
2019-05-23T11:45:33.256Z,4.20
2019-05-23T11:48:03.188Z,4.27
2019-05-23T11:50:33.035Z,4.00
2019-05-23T11:53:03.018Z,4.47
2019-05-23T11:55:32.512Z,3.80
2019-05-23T11:58:01.794Z,3.70
2019-05-23T12:01:10.190Z,3.50
2019-05-23T12:03:40.197Z,4.00
2019-05-23T12:06:09.483Z,4.10
2019-05-23T12:08:39.046Z,3.70
2019-05-23T12:11:08.492Z,4.20
2019-05-23T12:13:40.559Z,4.00
2019-05-23T12:16:11.252Z,3.97
2019-05-23T12:18:40.528Z,4.57
2019-05-23T12:21:10.099Z,4.00
2019-05-23T12:23:39.395Z,4.00
2019-05-23T12:26:08.663Z,4.00
2019-05-23T12:28:37.954Z,4.30
2019-05-23T12:31:09.712Z,4.40
2019-05-23T12:33:40.772Z,4.10
2019-05-23T12:36:12.165Z,4.00
2019-05-23T12:38:41.485Z,3.80
2019-05-23T12:41:12.815Z,3.70
2019-05-23T12:43:42.058Z,3.80
2019-05-23T12:46:11.761Z,3.10
2019-05-23T12:48:59.960Z,3.20
2019-05-23T12:51:32.845Z,3.37
2019-05-23T12:54:03.898Z,3.33
2019-05-23T12:56:36.343Z,3.30
2019-05-23T12:59:06.576Z,3.43
2019-05-23T13:01:37.266Z,2.97
2019-05-23T13:04:10.091Z,2.80
2019-05-23T13:06:38.976Z,2.70
2019-05-23T13:09:10.227Z,2.73
2019-05-23T13:11:39.870Z,2.77
2019-05-23T13:14:10.309Z,2.63
2019-05-23T13:16:43.226Z,2.87
2019-05-23T13:19:12.460Z,3.03
2019-05-23T13:21:42.021Z,3.17
2019-05-23T13:24:11.225Z,2.70
2019-05-23T13:26:40.827Z,2.97
2019-05-23T13:29:10.776Z,2.90
2019-05-23T13:31:40.031Z,2.80
2019-05-23T13:34:09.798Z,2.60
2019-05-23T13:36:39.031Z,2.63
2019-05-23T13:39:11.616Z,2.70
2019-05-23T13:41:41.176Z,2.43
2019-05-23T13:44:29.641Z,2.43
2019-05-23T13:46:42.891Z,2.73
2019-05-23T13:49:12.441Z,2.87
2019-05-23T13:51:42.687Z,2.83
2019-05-23T13:54:12.189Z,2.50
2019-05-23T13:56:42.035Z,3.07
2019-05-23T13:59:11.390Z,2.50
2019-05-23T14:01:40.725Z,2.97
2019-05-23T14:04:10.808Z,3.10
2019-05-23T14:06:40.411Z,3.17
2019-05-23T14:09:11.789Z,3.00
2019-05-23T14:11:41.273Z,2.70
2019-05-23T14:14:29.466Z,2.40
2019-05-23T14:17:16.534Z,3.00
2019-05-23T14:19:46.151Z,2.70
2019-05-23T14:22:15.721Z,2.30
2019-05-23T14:24:45.018Z,2.60
2019-05-23T14:27:45.429Z,2.67
2019-05-23T14:30:28.210Z,2.10
2019-05-23T14:32:59.858Z,2.20
2019-05-23T14:35:31.068Z,2.20
2019-05-23T14:38:02.902Z,2.03
2019-05-23T14:40:32.519Z,2.40
2019-05-23T14:43:20.752Z,1.93
2019-05-23T14:46:08.987Z,1.97
2019-05-23T14:48:51.306Z,2.50
2019-05-23T14:51:33.092Z,2.07
2019-05-23T14:54:33.831Z,2.53
2019-05-23T14:57:04.690Z,2.50
2019-05-23T14:59:34.497Z,2.40
2019-05-23T15:02:06.173Z,2.67
2019-05-23T15:04:35.696Z,2.47
2019-05-23T15:07:05.610Z,2.40
2019-05-23T15:09:34.802Z,2.47
2019-05-23T15:12:07.409Z,2.30
2019-05-23T15:14:36.844Z,2.40
2019-05-23T15:17:06.505Z,2.50
2019-05-23T15:19:44.151Z,2.40
2019-05-23T15:22:07.573Z,2.57
2019-05-23T15:24:36.853Z,2.67
2019-05-23T15:27:06.567Z,2.10
2019-05-23T15:29:35.818Z,2.60
2019-05-23T15:32:05.438Z,2.30
2019-05-23T15:34:35.499Z,2.13
2019-05-23T15:37:06.435Z,2.30
2019-05-23T15:39:35.771Z,2.60
2019-05-23T15:42:07.961Z,2.40
2019-05-23T15:44:39.972Z,2.33
2019-05-23T15:47:09.320Z,2.50
2019-05-23T15:49:40.852Z,2.53
2019-05-23T15:52:22.054Z,2.70
2019-05-23T15:55:02.305Z,2.57
2019-05-23T15:57:53.039Z,2.50
2019-05-23T16:00:41.255Z,2.67
2019-05-23T16:03:21.577Z,2.50
2019-05-23T16:05:51.676Z,2.17
2019-05-23T16:08:21.896Z,2.27
2019-05-23T16:10:52.826Z,2.90
2019-05-23T16:13:22.762Z,2.80
2019-05-23T16:15:52.118Z,2.50
2019-05-23T16:18:22.247Z,2.70
2019-05-23T16:20:51.567Z,2.53
2019-05-23T16:23:21.270Z,2.53
2019-05-23T16:25:51.537Z,2.70
2019-05-23T16:28:21.526Z,2.60
2019-05-23T16:30:53.678Z,2.43
2019-05-23T16:33:23.020Z,2.70
2019-05-23T16:35:52.220Z,2.60
2019-05-23T16:38:21.413Z,2.33
2019-05-23T16:40:50.829Z,2.20
2019-05-23T16:43:20.693Z,1.90
2019-05-23T16:45:50.246Z,4.10
2019-05-23T16:48:20.107Z,3.87
2019-05-23T16:50:49.757Z,5.13
2019-05-23T16:53:19.070Z,2.87
2019-05-23T16:56:03.953Z,2.90
2019-05-23T16:58:42.800Z,2.80
2019-05-23T17:01:56.071Z,2.50
2019-05-23T17:04:32.718Z,3.33
2019-05-23T17:07:10.709Z,2.40
2019-05-23T17:10:06.781Z,2.50
2019-05-23T17:12:37.701Z,2.60
2019-05-23T17:15:24.961Z,2.60
2019-05-23T17:18:13.060Z,2.10
2019-05-23T17:20:58.800Z,2.70
2019-05-23T17:23:45.970Z,2.87
2019-05-23T17:26:24.279Z,2.97
2019-05-23T17:28:54.876Z,2.70
2019-05-23T17:31:29.332Z,2.10
2019-05-23T17:33:59.505Z,2.50
2019-05-23T17:36:28.833Z,2.60
2019-05-23T17:38:58.642Z,2.00
2019-05-23T17:41:28.366Z,2.53
2019-05-23T17:43:57.650Z,2.30
2019-05-23T17:46:26.971Z,2.57
2019-05-23T17:48:56.798Z,2.60
2019-05-23T17:51:26.190Z,2.60
2019-05-23T17:53:55.841Z,2.50
2019-05-23T17:56:25.136Z,2.60
2019-05-23T17:58:55.566Z,2.80
2019-05-23T18:01:25.931Z,2.30
2019-05-23T18:03:55.812Z,2.33
2019-05-23T18:06:26.571Z,2.37
2019-05-23T18:08:56.833Z,1.97
2019-05-23T18:11:27.642Z,2.33
2019-05-23T18:13:57.563Z,1.90
2019-05-23T18:16:27.976Z,2.10
2019-05-23T18:18:57.720Z,1.97
2019-05-23T18:21:27.643Z,2.10
2019-05-23T18:23:58.435Z,2.37
2019-05-23T18:26:33.489Z,2.40
2019-05-23T18:29:02.341Z,2.33
2019-05-23T18:31:34.039Z,2.40
2019-05-23T18:34:05.361Z,2.33
2019-05-23T18:36:35.654Z,2.60
2019-05-23T18:39:07.407Z,2.40
2019-05-23T18:41:37.682Z,2.50
2019-05-23T18:44:09.332Z,2.30
2019-05-23T18:46:45.462Z,2.70
2019-05-23T18:49:15.732Z,2.53
2019-05-23T18:51:45.363Z,2.70
2019-05-23T18:54:14.646Z,2.23
2019-05-23T18:56:43.907Z,2.30
2019-05-23T18:59:13.573Z,2.20
2019-05-23T19:01:42.939Z,2.27
2019-05-23T19:04:14.708Z,2.43
2019-05-23T19:06:48.820Z,2.50
2019-05-23T19:09:19.028Z,2.80
2019-05-23T19:11:48.948Z,2.67
2019-05-23T19:14:19.887Z,2.60
2019-05-23T19:16:50.056Z,2.90
2019-05-23T19:19:19.986Z,3.00
2019-05-23T19:21:49.304Z,3.03
2019-05-23T19:24:19.153Z,3.03
2019-05-23T19:26:49.656Z,4.37
2019-05-23T19:29:19.671Z,4.90
2019-05-23T19:31:49.478Z,5.97
2019-05-23T19:34:19.431Z,5.23
2019-05-23T19:36:49.316Z,4.57
2019-05-23T19:39:19.820Z,4.80
2019-05-23T19:41:53.971Z,4.40
2019-05-23T19:44:21.394Z,4.60
2019-05-23T19:46:51.029Z,4.50
2019-05-23T19:49:20.592Z,4.23
2019-05-23T19:51:50.697Z,4.00
2019-05-23T19:54:20.885Z,3.87
2019-05-23T19:56:52.697Z,4.17
2019-05-23T19:59:24.589Z,4.20
2019-05-23T20:02:14.147Z,3.67
2019-05-23T20:04:49.211Z,3.50
2019-05-23T20:07:18.583Z,3.53
2019-05-23T20:09:50.958Z,3.67
2019-05-23T20:12:21.387Z,3.83
2019-05-23T20:14:51.886Z,3.43
2019-05-23T20:17:21.544Z,4.13
2019-05-23T20:19:50.942Z,3.70
2019-05-23T20:22:20.369Z,4.37
2019-05-23T20:24:50.223Z,3.80
2019-05-23T20:27:19.590Z,3.83
2019-05-23T20:29:48.884Z,4.13
2019-05-23T20:32:18.720Z,3.50
2019-05-23T20:34:48.298Z,3.97
2019-05-23T20:37:17.969Z,4.07
2019-05-23T20:39:47.560Z,4.10
2019-05-23T20:42:17.003Z,4.67
2019-05-23T20:44:48.017Z,4.60
2019-05-23T20:47:17.230Z,5.63
2019-05-23T20:49:47.048Z,5.20
2019-05-23T20:52:16.498Z,5.03
2019-05-23T20:54:46.911Z,5.90
2019-05-23T20:57:16.418Z,5.80
2019-05-23T20:59:45.834Z,5.80
2019-05-23T21:02:15.657Z,5.87
2019-05-23T21:04:45.570Z,5.20
2019-05-23T21:07:14.977Z,5.23
2019-05-23T21:09:44.362Z,5.23
2019-05-23T21:12:28.743Z,5.20
2019-05-23T21:14:45.049Z,5.60
2019-05-23T21:17:14.387Z,5.70
2019-05-23T21:19:43.994Z,5.57
2019-05-23T21:22:14.755Z,5.87
2019-05-23T21:24:44.015Z,5.93
2019-05-23T21:27:13.377Z,5.60
2019-05-23T21:29:42.846Z,6.30
2019-05-23T21:32:13.688Z,6.03
2019-05-23T21:34:45.897Z,5.73
2019-05-23T21:37:15.613Z,6.40
2019-05-23T21:39:44.818Z,5.93
2019-05-23T21:42:14.815Z,6.03
2019-05-23T21:44:44.130Z,6.20
2019-05-23T21:47:13.638Z,6.20
2019-05-23T21:49:43.475Z,6.20
2019-05-23T21:52:13.230Z,6.17
2019-05-23T21:54:42.421Z,6.07
2019-05-23T21:57:11.789Z,5.80
